sensor_id;sensor_type;location;lat;lon;timestamp;P1;durP1;ratioP1;P2;durP2;ratioP2
18066;SDS011;9158;51.528;7.192;2023-04-24T00:00:03;1.20;;;0.45;;
18066;SDS011;9158;51.528;7.192;2023-04-24T00:00:36;0.70;;;0.30;;
18066;SDS011;9158;51.528;7.192;2023-04-24T00:01:10;0.90;;;0.60;;
18066;SDS011;9158;51.528;7.192;2023-04-24T00:01:43;1.00;;;0.55;;
18066;SDS011;9158;51.528;7.192;2023-04-24T00:02:15;0.60;;;0.52;;
18066;SDS011;9158;51.528;7.192;2023-04-24T00:02:46;0.47;;;0.47;;
18066;SDS011;9158;51.528;7.192;2023-04-24T00:03:19;0.77;;;0.50;;
18066;SDS011;9158;51.528;7.192;2023-04-24T00:03:52;0.80;;;0.40;;
18066;SDS011;9158;51.528;7.192;2023-04-24T00:04:23;0.80;;;0.60;;
18066;SDS011;9158;51.528;7.192;2023-04-24T00:04:56;0.73;;;0.50;;
18066;SDS011;9158;51.528;7.192;2023-04-24T00:05:32;1.77;;;0.82;;
18066;SDS011;9158;51.528;7.192;2023-04-24T00:06:04;1.85;;;0.50;;
18066;SDS011;9158;51.528;7.192;2023-04-24T00:06:37;0.40;;;0.40;;
18066;SDS011;9158;51.528;7.192;2023-04-24T00:07:12;0.40;;;0.40;;
18066;SDS011;9158;51.528;7.192;2023-04-24T00:07:44;0.50;;;0.45;;
18066;SDS011;9158;51.528;7.192;2023-04-24T00:08:15;0.68;;;0.43;;
18066;SDS011;9158;51.528;7.192;2023-04-24T00:08:47;0.68;;;0.52;;
18066;SDS011;9158;51.528;7.192;2023-04-24T00:09:18;0.47;;;0.47;;
18066;SDS011;9158;51.528;7.192;2023-04-24T00:09:49;0.57;;;0.30;;
18066;SDS011;9158;51.528;7.192;2023-04-24T00:10:21;2.25;;;0.40;;
18066;SDS011;9158;51.528;7.192;2023-04-24T00:10:52;0.45;;;0.30;;
18066;SDS011;9158;51.528;7.192;2023-04-24T00:11:23;0.70;;;0.68;;
18066;SDS011;9158;51.528;7.192;2023-04-24T00:11:55;0.68;;;0.57;;
18066;SDS011;9158;51.528;7.192;2023-04-24T00:12:26;2.00;;;0.63;;
18066;SDS011;9158;51.528;7.192;2023-04-24T00:12:57;0.50;;;0.50;;
18066;SDS011;9158;51.528;7.192;2023-04-24T00:13:29;1.85;;;0.55;;
18066;SDS011;9158;51.528;7.192;2023-04-24T00:14:00;0.88;;;0.80;;
18066;SDS011;9158;51.528;7.192;2023-04-24T00:14:32;0.60;;;0.60;;
18066;SDS011;9158;51.528;7.192;2023-04-24T00:15:05;0.60;;;0.40;;
18066;SDS011;9158;51.528;7.192;2023-04-24T00:15:37;0.60;;;0.50;;
18066;SDS011;9158;51.528;7.192;2023-04-24T00:16:08;0.30;;;0.30;;
18066;SDS011;9158;51.528;7.192;2023-04-24T00:16:40;0.52;;;0.50;;
18066;SDS011;9158;51.528;7.192;2023-04-24T00:17:11;0.85;;;0.60;;
18066;SDS011;9158;51.528;7.192;2023-04-24T00:17:42;0.40;;;0.28;;
18066;SDS011;9158;51.528;7.192;2023-04-24T00:18:14;0.57;;;0.55;;
18066;SDS011;9158;51.528;7.192;2023-04-24T00:18:46;0.63;;;0.63;;
18066;SDS011;9158;51.528;7.192;2023-04-24T00:19:18;1.02;;;0.60;;
18066;SDS011;9158;51.528;7.192;2023-04-24T00:19:51;0.40;;;0.40;;
18066;SDS011;9158;51.528;7.192;2023-04-24T00:20:28;1.45;;;0.55;;
18066;SDS011;9158;51.528;7.192;2023-04-24T00:21:02;1.60;;;0.60;;
18066;SDS011;9158;51.528;7.192;2023-04-24T00:21:33;2.05;;;0.57;;
18066;SDS011;9158;51.528;7.192;2023-04-24T00:22:05;0.88;;;0.50;;
18066;SDS011;9158;51.528;7.192;2023-04-24T00:22:37;3.22;;;0.60;;
18066;SDS011;9158;51.528;7.192;2023-04-24T00:23:08;0.43;;;0.43;;
18066;SDS011;9158;51.528;7.192;2023-04-24T00:23:39;2.50;;;0.50;;
18066;SDS011;9158;51.528;7.192;2023-04-24T00:24:11;0.70;;;0.70;;
18066;SDS011;9158;51.528;7.192;2023-04-24T00:24:42;0.65;;;0.65;;
18066;SDS011;9158;51.528;7.192;2023-04-24T00:25:13;0.40;;;0.40;;
18066;SDS011;9158;51.528;7.192;2023-04-24T00:25:45;0.60;;;0.55;;
18066;SDS011;9158;51.528;7.192;2023-04-24T00:26:15;0.80;;;0.63;;
18066;SDS011;9158;51.528;7.192;2023-04-24T00:26:46;0.87;;;0.60;;
18066;SDS011;9158;51.528;7.192;2023-04-24T00:27:18;0.77;;;0.50;;
18066;SDS011;9158;51.528;7.192;2023-04-24T00:27:49;1.02;;;0.60;;
18066;SDS011;9158;51.528;7.192;2023-04-24T00:28:21;0.93;;;0.70;;
18066;SDS011;9158;51.528;7.192;2023-04-24T00:28:52;0.50;;;0.50;;
18066;SDS011;9158;51.528;7.192;2023-04-24T00:29:24;0.63;;;0.60;;
18066;SDS011;9158;51.528;7.192;2023-04-24T00:29:55;1.23;;;0.93;;
18066;SDS011;9158;51.528;7.192;2023-04-24T00:30:27;0.55;;;0.55;;
18066;SDS011;9158;51.528;7.192;2023-04-24T00:30:57;0.65;;;0.65;;
18066;SDS011;9158;51.528;7.192;2023-04-24T00:31:28;0.60;;;0.60;;
18066;SDS011;9158;51.528;7.192;2023-04-24T00:32:00;1.38;;;0.77;;
18066;SDS011;9158;51.528;7.192;2023-04-24T00:32:31;1.05;;;0.63;;
18066;SDS011;9158;51.528;7.192;2023-04-24T00:33:02;0.50;;;0.40;;
18066;SDS011;9158;51.528;7.192;2023-04-24T00:33:34;0.65;;;0.65;;
18066;SDS011;9158;51.528;7.192;2023-04-24T00:34:07;0.68;;;0.60;;
18066;SDS011;9158;51.528;7.192;2023-04-24T00:34:39;0.82;;;0.60;;
18066;SDS011;9158;51.528;7.192;2023-04-24T00:35:10;2.23;;;0.67;;
18066;SDS011;9158;51.528;7.192;2023-04-24T00:35:41;0.95;;;0.40;;
18066;SDS011;9158;51.528;7.192;2023-04-24T00:36:12;1.07;;;0.97;;
18066;SDS011;9158;51.528;7.192;2023-04-24T00:36:44;0.75;;;0.75;;
18066;SDS011;9158;51.528;7.192;2023-04-24T00:37:15;0.90;;;0.60;;
18066;SDS011;9158;51.528;7.192;2023-04-24T00:37:48;4.00;;;1.02;;
18066;SDS011;9158;51.528;7.192;2023-04-24T00:38:20;1.50;;;0.70;;
18066;SDS011;9158;51.528;7.192;2023-04-24T00:38:52;1.63;;;0.73;;
18066;SDS011;9158;51.528;7.192;2023-04-24T00:39:23;0.83;;;0.83;;
18066;SDS011;9158;51.528;7.192;2023-04-24T00:39:55;0.63;;;0.60;;
18066;SDS011;9158;51.528;7.192;2023-04-24T00:40:26;2.30;;;0.70;;
18066;SDS011;9158;51.528;7.192;2023-04-24T00:40:57;0.50;;;0.50;;
18066;SDS011;9158;51.528;7.192;2023-04-24T00:41:30;0.68;;;0.68;;
18066;SDS011;9158;51.528;7.192;2023-04-24T00:42:01;1.13;;;0.60;;
18066;SDS011;9158;51.528;7.192;2023-04-24T00:42:32;0.95;;;0.60;;
18066;SDS011;9158;51.528;7.192;2023-04-24T00:43:04;0.73;;;0.73;;
18066;SDS011;9158;51.528;7.192;2023-04-24T00:43:35;1.48;;;0.50;;
18066;SDS011;9158;51.528;7.192;2023-04-24T00:44:06;0.60;;;0.60;;
18066;SDS011;9158;51.528;7.192;2023-04-24T00:44:39;1.65;;;0.73;;
18066;SDS011;9158;51.528;7.192;2023-04-24T00:45:10;0.95;;;0.80;;
18066;SDS011;9158;51.528;7.192;2023-04-24T00:45:42;1.20;;;0.55;;
18066;SDS011;9158;51.528;7.192;2023-04-24T00:46:14;0.98;;;0.77;;
18066;SDS011;9158;51.528;7.192;2023-04-24T00:46:46;0.63;;;0.63;;
18066;SDS011;9158;51.528;7.192;2023-04-24T00:47:17;0.63;;;0.63;;
18066;SDS011;9158;51.528;7.192;2023-04-24T00:47:52;1.15;;;0.88;;
18066;SDS011;9158;51.528;7.192;2023-04-24T00:48:23;1.35;;;0.68;;
18066;SDS011;9158;51.528;7.192;2023-04-24T00:48:55;0.60;;;0.60;;
18066;SDS011;9158;51.528;7.192;2023-04-24T00:49:29;0.68;;;0.68;;
18066;SDS011;9158;51.528;7.192;2023-04-24T00:50:01;0.93;;;0.88;;
18066;SDS011;9158;51.528;7.192;2023-04-24T00:50:32;0.70;;;0.70;;
18066;SDS011;9158;51.528;7.192;2023-04-24T00:51:04;1.25;;;0.80;;
18066;SDS011;9158;51.528;7.192;2023-04-24T00:51:35;2.25;;;0.80;;
18066;SDS011;9158;51.528;7.192;2023-04-24T00:52:06;0.60;;;0.60;;
18066;SDS011;9158;51.528;7.192;2023-04-24T00:52:39;0.90;;;0.90;;
18066;SDS011;9158;51.528;7.192;2023-04-24T00:53:11;1.10;;;0.75;;
18066;SDS011;9158;51.528;7.192;2023-04-24T00:53:41;0.68;;;0.60;;
18066;SDS011;9158;51.528;7.192;2023-04-24T00:54:13;0.60;;;0.50;;
18066;SDS011;9158;51.528;7.192;2023-04-24T00:54:45;0.70;;;0.70;;
18066;SDS011;9158;51.528;7.192;2023-04-24T00:55:16;1.00;;;0.90;;
18066;SDS011;9158;51.528;7.192;2023-04-24T00:55:48;1.10;;;0.98;;
18066;SDS011;9158;51.528;7.192;2023-04-24T00:56:19;2.95;;;0.90;;
18066;SDS011;9158;51.528;7.192;2023-04-24T00:56:50;1.25;;;0.75;;
18066;SDS011;9158;51.528;7.192;2023-04-24T00:57:22;0.75;;;0.60;;
18066;SDS011;9158;51.528;7.192;2023-04-24T00:57:53;0.60;;;0.60;;
18066;SDS011;9158;51.528;7.192;2023-04-24T00:58:25;1.08;;;0.70;;
18066;SDS011;9158;51.528;7.192;2023-04-24T00:58:57;1.70;;;1.05;;
18066;SDS011;9158;51.528;7.192;2023-04-24T00:59:29;0.63;;;0.63;;
18066;SDS011;9158;51.528;7.192;2023-04-24T01:00:00;1.05;;;0.60;;
18066;SDS011;9158;51.528;7.192;2023-04-24T01:00:33;0.70;;;0.70;;
18066;SDS011;9158;51.528;7.192;2023-04-24T01:01:05;1.33;;;0.77;;
18066;SDS011;9158;51.528;7.192;2023-04-24T01:01:37;1.38;;;1.10;;
18066;SDS011;9158;51.528;7.192;2023-04-24T01:02:12;0.80;;;0.80;;
18066;SDS011;9158;51.528;7.192;2023-04-24T01:02:43;0.65;;;0.65;;
18066;SDS011;9158;51.528;7.192;2023-04-24T01:03:15;1.30;;;0.75;;
18066;SDS011;9158;51.528;7.192;2023-04-24T01:03:48;0.70;;;0.63;;
18066;SDS011;9158;51.528;7.192;2023-04-24T01:04:21;1.02;;;0.93;;
18066;SDS011;9158;51.528;7.192;2023-04-24T01:04:53;0.73;;;0.63;;
18066;SDS011;9158;51.528;7.192;2023-04-24T01:05:24;1.25;;;1.10;;
18066;SDS011;9158;51.528;7.192;2023-04-24T01:05:57;0.73;;;0.60;;
18066;SDS011;9158;51.528;7.192;2023-04-24T01:06:29;1.05;;;0.90;;
18066;SDS011;9158;51.528;7.192;2023-04-24T01:07:01;0.60;;;0.60;;
18066;SDS011;9158;51.528;7.192;2023-04-24T01:07:33;0.70;;;0.70;;
18066;SDS011;9158;51.528;7.192;2023-04-24T01:08:06;1.20;;;0.70;;
18066;SDS011;9158;51.528;7.192;2023-04-24T01:08:37;1.08;;;1.02;;
18066;SDS011;9158;51.528;7.192;2023-04-24T01:09:11;0.68;;;0.68;;
18066;SDS011;9158;51.528;7.192;2023-04-24T01:09:42;0.90;;;0.90;;
18066;SDS011;9158;51.528;7.192;2023-04-24T01:10:17;1.13;;;1.00;;
18066;SDS011;9158;51.528;7.192;2023-04-24T01:10:50;1.40;;;1.20;;
18066;SDS011;9158;51.528;7.192;2023-04-24T01:11:23;3.28;;;0.93;;
18066;SDS011;9158;51.528;7.192;2023-04-24T01:11:54;0.70;;;0.70;;
18066;SDS011;9158;51.528;7.192;2023-04-24T01:12:26;0.88;;;0.88;;
18066;SDS011;9158;51.528;7.192;2023-04-24T01:12:58;0.85;;;0.70;;
18066;SDS011;9158;51.528;7.192;2023-04-24T01:13:29;1.25;;;0.68;;
18066;SDS011;9158;51.528;7.192;2023-04-24T01:14:02;1.10;;;1.00;;
18066;SDS011;9158;51.528;7.192;2023-04-24T01:14:33;1.40;;;0.90;;
18066;SDS011;9158;51.528;7.192;2023-04-24T01:15:05;0.93;;;0.88;;
18066;SDS011;9158;51.528;7.192;2023-04-24T01:15:39;0.95;;;0.75;;
18066;SDS011;9158;51.528;7.192;2023-04-24T01:16:11;0.82;;;0.70;;
18066;SDS011;9158;51.528;7.192;2023-04-24T01:16:42;0.80;;;0.80;;
18066;SDS011;9158;51.528;7.192;2023-04-24T01:17:15;1.58;;;0.80;;
18066;SDS011;9158;51.528;7.192;2023-04-24T01:17:46;0.77;;;0.77;;
18066;SDS011;9158;51.528;7.192;2023-04-24T01:18:18;2.35;;;1.08;;
18066;SDS011;9158;51.528;7.192;2023-04-24T01:18:49;1.00;;;0.90;;
18066;SDS011;9158;51.528;7.192;2023-04-24T01:19:22;0.70;;;0.65;;
18066;SDS011;9158;51.528;7.192;2023-04-24T01:19:54;1.10;;;0.77;;
18066;SDS011;9158;51.528;7.192;2023-04-24T01:20:27;1.10;;;1.00;;
18066;SDS011;9158;51.528;7.192;2023-04-24T01:21:02;0.80;;;0.70;;
18066;SDS011;9158;51.528;7.192;2023-04-24T01:21:36;1.80;;;1.00;;
18066;SDS011;9158;51.528;7.192;2023-04-24T01:22:10;1.20;;;1.10;;
18066;SDS011;9158;51.528;7.192;2023-04-24T01:22:42;1.25;;;1.00;;
18066;SDS011;9158;51.528;7.192;2023-04-24T01:23:14;1.27;;;0.70;;
18066;SDS011;9158;51.528;7.192;2023-04-24T01:23:45;1.35;;;0.80;;
18066;SDS011;9158;51.528;7.192;2023-04-24T01:24:16;1.02;;;0.90;;
18066;SDS011;9158;51.528;7.192;2023-04-24T01:24:49;1.15;;;0.80;;
18066;SDS011;9158;51.528;7.192;2023-04-24T01:25:21;0.82;;;0.80;;
18066;SDS011;9158;51.528;7.192;2023-04-24T01:25:53;1.20;;;1.00;;
18066;SDS011;9158;51.528;7.192;2023-04-24T01:26:24;0.80;;;0.80;;
18066;SDS011;9158;51.528;7.192;2023-04-24T01:26:56;0.70;;;0.70;;
18066;SDS011;9158;51.528;7.192;2023-04-24T01:27:27;1.02;;;0.93;;
18066;SDS011;9158;51.528;7.192;2023-04-24T01:27:58;1.10;;;1.00;;
18066;SDS011;9158;51.528;7.192;2023-04-24T01:28:31;0.80;;;0.80;;
18066;SDS011;9158;51.528;7.192;2023-04-24T01:29:02;1.20;;;0.95;;
18066;SDS011;9158;51.528;7.192;2023-04-24T01:29:33;1.05;;;1.00;;
18066;SDS011;9158;51.528;7.192;2023-04-24T01:30:06;1.15;;;0.95;;
18066;SDS011;9158;51.528;7.192;2023-04-24T01:30:38;1.38;;;1.27;;
18066;SDS011;9158;51.528;7.192;2023-04-24T01:31:09;1.30;;;0.90;;
18066;SDS011;9158;51.528;7.192;2023-04-24T01:31:41;1.05;;;0.98;;
18066;SDS011;9158;51.528;7.192;2023-04-24T01:32:13;0.85;;;0.85;;
18066;SDS011;9158;51.528;7.192;2023-04-24T01:32:44;1.67;;;1.10;;
18066;SDS011;9158;51.528;7.192;2023-04-24T01:33:17;1.50;;;0.98;;
18066;SDS011;9158;51.528;7.192;2023-04-24T01:33:48;1.00;;;1.00;;
18066;SDS011;9158;51.528;7.192;2023-04-24T01:34:20;0.98;;;0.98;;
18066;SDS011;9158;51.528;7.192;2023-04-24T01:34:52;1.10;;;1.00;;
18066;SDS011;9158;51.528;7.192;2023-04-24T01:35:23;1.05;;;0.95;;
18066;SDS011;9158;51.528;7.192;2023-04-24T01:35:55;1.33;;;1.23;;
18066;SDS011;9158;51.528;7.192;2023-04-24T01:36:27;1.52;;;1.30;;
18066;SDS011;9158;51.528;7.192;2023-04-24T01:37:00;0.90;;;0.90;;
18066;SDS011;9158;51.528;7.192;2023-04-24T01:37:32;1.25;;;1.15;;
18066;SDS011;9158;51.528;7.192;2023-04-24T01:38:04;1.23;;;1.08;;
18066;SDS011;9158;51.528;7.192;2023-04-24T01:38:35;1.20;;;1.08;;
18066;SDS011;9158;51.528;7.192;2023-04-24T01:39:06;3.95;;;1.38;;
18066;SDS011;9158;51.528;7.192;2023-04-24T01:39:39;1.40;;;1.30;;
18066;SDS011;9158;51.528;7.192;2023-04-24T01:40:10;1.30;;;1.20;;
18066;SDS011;9158;51.528;7.192;2023-04-24T01:40:41;1.92;;;1.70;;
18066;SDS011;9158;51.528;7.192;2023-04-24T01:41:13;3.10;;;1.13;;
18066;SDS011;9158;51.528;7.192;2023-04-24T01:41:44;1.63;;;1.15;;
18066;SDS011;9158;51.528;7.192;2023-04-24T01:42:15;1.45;;;1.35;;
18066;SDS011;9158;51.528;7.192;2023-04-24T01:42:47;4.72;;;1.58;;
18066;SDS011;9158;51.528;7.192;2023-04-24T01:43:18;1.77;;;1.42;;
18066;SDS011;9158;51.528;7.192;2023-04-24T01:43:50;2.08;;;1.48;;
18066;SDS011;9158;51.528;7.192;2023-04-24T01:44:23;2.22;;;1.40;;
18066;SDS011;9158;51.528;7.192;2023-04-24T01:44:55;1.50;;;1.40;;
18066;SDS011;9158;51.528;7.192;2023-04-24T01:45:27;2.47;;;1.40;;
18066;SDS011;9158;51.528;7.192;2023-04-24T01:45:58;1.08;;;1.02;;
18066;SDS011;9158;51.528;7.192;2023-04-24T01:46:30;2.17;;;1.60;;
18066;SDS011;9158;51.528;7.192;2023-04-24T01:47:01;2.17;;;1.63;;
18066;SDS011;9158;51.528;7.192;2023-04-24T01:47:34;1.50;;;1.40;;
18066;SDS011;9158;51.528;7.192;2023-04-24T01:48:05;1.20;;;1.10;;
18066;SDS011;9158;51.528;7.192;2023-04-24T01:48:37;1.58;;;1.48;;
18066;SDS011;9158;51.528;7.192;2023-04-24T01:49:08;1.50;;;1.40;;
18066;SDS011;9158;51.528;7.192;2023-04-24T01:49:39;1.67;;;1.58;;
18066;SDS011;9158;51.528;7.192;2023-04-24T01:50:11;1.77;;;1.35;;
18066;SDS011;9158;51.528;7.192;2023-04-24T01:50:43;2.30;;;1.60;;
18066;SDS011;9158;51.528;7.192;2023-04-24T01:51:16;1.77;;;1.65;;
18066;SDS011;9158;51.528;7.192;2023-04-24T01:51:48;1.30;;;1.20;;
18066;SDS011;9158;51.528;7.192;2023-04-24T01:52:19;4.03;;;1.90;;
18066;SDS011;9158;51.528;7.192;2023-04-24T01:52:52;2.03;;;1.50;;
18066;SDS011;9158;51.528;7.192;2023-04-24T01:53:25;2.47;;;1.50;;
18066;SDS011;9158;51.528;7.192;2023-04-24T01:53:56;1.75;;;1.42;;
18066;SDS011;9158;51.528;7.192;2023-04-24T01:54:27;1.80;;;1.70;;
18066;SDS011;9158;51.528;7.192;2023-04-24T01:54:59;2.40;;;1.73;;
18066;SDS011;9158;51.528;7.192;2023-04-24T01:55:31;1.80;;;1.63;;
18066;SDS011;9158;51.528;7.192;2023-04-24T01:56:02;1.42;;;1.33;;
18066;SDS011;9158;51.528;7.192;2023-04-24T01:56:34;1.70;;;1.60;;
18066;SDS011;9158;51.528;7.192;2023-04-24T01:57:06;1.98;;;1.83;;
18066;SDS011;9158;51.528;7.192;2023-04-24T01:57:37;2.63;;;1.40;;
18066;SDS011;9158;51.528;7.192;2023-04-24T01:58:10;1.98;;;1.60;;
18066;SDS011;9158;51.528;7.192;2023-04-24T01:58:41;1.90;;;1.80;;
18066;SDS011;9158;51.528;7.192;2023-04-24T01:59:13;2.00;;;1.80;;
18066;SDS011;9158;51.528;7.192;2023-04-24T01:59:46;4.28;;;2.47;;
18066;SDS011;9158;51.528;7.192;2023-04-24T02:00:18;2.47;;;1.80;;
18066;SDS011;9158;51.528;7.192;2023-04-24T02:00:49;8.30;;;2.60;;
18066;SDS011;9158;51.528;7.192;2023-04-24T02:01:23;2.88;;;2.58;;
18066;SDS011;9158;51.528;7.192;2023-04-24T02:01:54;3.40;;;2.08;;
18066;SDS011;9158;51.528;7.192;2023-04-24T02:02:25;1.80;;;1.70;;
18066;SDS011;9158;51.528;7.192;2023-04-24T02:02:57;2.72;;;2.42;;
18066;SDS011;9158;51.528;7.192;2023-04-24T02:03:31;1.90;;;1.73;;
18066;SDS011;9158;51.528;7.192;2023-04-24T02:04:03;4.28;;;2.20;;
18066;SDS011;9158;51.528;7.192;2023-04-24T02:04:34;2.40;;;2.10;;
18066;SDS011;9158;51.528;7.192;2023-04-24T02:05:06;2.53;;;2.33;;
18066;SDS011;9158;51.528;7.192;2023-04-24T02:05:43;3.03;;;2.25;;
18066;SDS011;9158;51.528;7.192;2023-04-24T02:06:15;3.45;;;2.38;;
18066;SDS011;9158;51.528;7.192;2023-04-24T02:06:46;3.20;;;2.30;;
18066;SDS011;9158;51.528;7.192;2023-04-24T02:07:17;3.53;;;2.40;;
18066;SDS011;9158;51.528;7.192;2023-04-24T02:07:49;2.47;;;2.28;;
18066;SDS011;9158;51.528;7.192;2023-04-24T02:08:21;3.30;;;2.08;;
18066;SDS011;9158;51.528;7.192;2023-04-24T02:08:53;4.55;;;1.95;;
18066;SDS011;9158;51.528;7.192;2023-04-24T02:09:26;2.88;;;2.30;;
18066;SDS011;9158;51.528;7.192;2023-04-24T02:09:57;2.47;;;2.28;;
18066;SDS011;9158;51.528;7.192;2023-04-24T02:10:28;2.80;;;2.08;;
18066;SDS011;9158;51.528;7.192;2023-04-24T02:10:59;3.08;;;2.30;;
18066;SDS011;9158;51.528;7.192;2023-04-24T02:11:32;2.20;;;2.00;;
18066;SDS011;9158;51.528;7.192;2023-04-24T02:12:03;2.65;;;1.77;;
18066;SDS011;9158;51.528;7.192;2023-04-24T02:12:34;2.15;;;1.95;;
18066;SDS011;9158;51.528;7.192;2023-04-24T02:13:06;4.57;;;2.17;;
18066;SDS011;9158;51.528;7.192;2023-04-24T02:13:37;2.83;;;2.00;;
18066;SDS011;9158;51.528;7.192;2023-04-24T02:14:08;2.00;;;1.90;;
18066;SDS011;9158;51.528;7.192;2023-04-24T02:14:40;1.80;;;1.70;;
18066;SDS011;9158;51.528;7.192;2023-04-24T02:15:14;2.30;;;1.90;;
18066;SDS011;9158;51.528;7.192;2023-04-24T02:15:45;3.90;;;1.95;;
18066;SDS011;9158;51.528;7.192;2023-04-24T02:16:17;2.88;;;2.25;;
18066;SDS011;9158;51.528;7.192;2023-04-24T02:16:48;1.95;;;1.85;;
18066;SDS011;9158;51.528;7.192;2023-04-24T02:17:19;2.27;;;2.07;;
18066;SDS011;9158;51.528;7.192;2023-04-24T02:17:51;4.25;;;3.95;;
18066;SDS011;9158;51.528;7.192;2023-04-24T02:18:21;2.80;;;1.60;;
18066;SDS011;9158;51.528;7.192;2023-04-24T02:18:52;2.35;;;1.95;;
18066;SDS011;9158;51.528;7.192;2023-04-24T02:19:24;2.55;;;2.10;;
18066;SDS011;9158;51.528;7.192;2023-04-24T02:19:56;2.45;;;2.25;;
18066;SDS011;9158;51.528;7.192;2023-04-24T02:20:27;2.65;;;1.75;;
18066;SDS011;9158;51.528;7.192;2023-04-24T02:20:59;3.85;;;2.20;;
18066;SDS011;9158;51.528;7.192;2023-04-24T02:21:30;2.00;;;1.83;;
18066;SDS011;9158;51.528;7.192;2023-04-24T02:22:01;2.58;;;2.20;;
18066;SDS011;9158;51.528;7.192;2023-04-24T02:22:33;2.80;;;2.40;;
18066;SDS011;9158;51.528;7.192;2023-04-24T02:23:06;2.15;;;1.95;;
18066;SDS011;9158;51.528;7.192;2023-04-24T02:23:38;2.80;;;1.98;;
18066;SDS011;9158;51.528;7.192;2023-04-24T02:24:10;2.85;;;2.22;;
18066;SDS011;9158;51.528;7.192;2023-04-24T02:24:41;2.50;;;2.30;;
18066;SDS011;9158;51.528;7.192;2023-04-24T02:25:12;3.20;;;1.90;;
18066;SDS011;9158;51.528;7.192;2023-04-24T02:25:45;4.13;;;2.30;;
18066;SDS011;9158;51.528;7.192;2023-04-24T02:26:16;3.20;;;2.83;;
18066;SDS011;9158;51.528;7.192;2023-04-24T02:26:48;2.72;;;2.50;;
18066;SDS011;9158;51.528;7.192;2023-04-24T02:27:20;2.42;;;2.22;;
18066;SDS011;9158;51.528;7.192;2023-04-24T02:27:50;3.00;;;2.70;;
18066;SDS011;9158;51.528;7.192;2023-04-24T02:28:21;3.23;;;2.50;;
18066;SDS011;9158;51.528;7.192;2023-04-24T02:28:54;2.40;;;2.20;;
18066;SDS011;9158;51.528;7.192;2023-04-24T02:29:26;3.75;;;2.33;;
18066;SDS011;9158;51.528;7.192;2023-04-24T02:29:57;2.90;;;2.60;;
18066;SDS011;9158;51.528;7.192;2023-04-24T02:30:28;3.03;;;2.65;;
18066;SDS011;9158;51.528;7.192;2023-04-24T02:30:59;3.88;;;3.30;;
18066;SDS011;9158;51.528;7.192;2023-04-24T02:31:31;3.97;;;3.10;;
18066;SDS011;9158;51.528;7.192;2023-04-24T02:32:02;3.80;;;3.25;;
18066;SDS011;9158;51.528;7.192;2023-04-24T02:32:33;3.85;;;2.70;;
18066;SDS011;9158;51.528;7.192;2023-04-24T02:33:05;3.05;;;2.72;;
18066;SDS011;9158;51.528;7.192;2023-04-24T02:33:37;3.05;;;2.80;;
18066;SDS011;9158;51.528;7.192;2023-04-24T02:34:08;2.97;;;2.67;;
18066;SDS011;9158;51.528;7.192;2023-04-24T02:34:40;2.70;;;2.50;;
18066;SDS011;9158;51.528;7.192;2023-04-24T02:35:11;3.88;;;2.95;;
18066;SDS011;9158;51.528;7.192;2023-04-24T02:35:43;3.80;;;2.63;;
18066;SDS011;9158;51.528;7.192;2023-04-24T02:36:13;5.27;;;2.80;;
18066;SDS011;9158;51.528;7.192;2023-04-24T02:36:46;3.40;;;3.10;;
18066;SDS011;9158;51.528;7.192;2023-04-24T02:37:18;3.80;;;3.10;;
18066;SDS011;9158;51.528;7.192;2023-04-24T02:37:49;3.55;;;3.22;;
18066;SDS011;9158;51.528;7.192;2023-04-24T02:38:20;4.95;;;3.00;;
18066;SDS011;9158;51.528;7.192;2023-04-24T02:38:54;6.05;;;3.95;;
18066;SDS011;9158;51.528;7.192;2023-04-24T02:39:25;3.75;;;3.40;;
18066;SDS011;9158;51.528;7.192;2023-04-24T02:39:56;2.88;;;2.55;;
18066;SDS011;9158;51.528;7.192;2023-04-24T02:40:28;5.68;;;3.17;;
18066;SDS011;9158;51.528;7.192;2023-04-24T02:40:59;3.78;;;3.25;;
18066;SDS011;9158;51.528;7.192;2023-04-24T02:41:31;4.53;;;3.13;;
18066;SDS011;9158;51.528;7.192;2023-04-24T02:42:03;9.00;;;3.85;;
18066;SDS011;9158;51.528;7.192;2023-04-24T02:42:34;6.40;;;3.70;;
18066;SDS011;9158;51.528;7.192;2023-04-24T02:43:06;5.65;;;3.95;;
18066;SDS011;9158;51.528;7.192;2023-04-24T02:43:37;5.82;;;3.85;;
18066;SDS011;9158;51.528;7.192;2023-04-24T02:44:08;7.05;;;4.20;;
18066;SDS011;9158;51.528;7.192;2023-04-24T02:44:40;5.38;;;3.90;;
18066;SDS011;9158;51.528;7.192;2023-04-24T02:45:11;5.60;;;4.20;;
18066;SDS011;9158;51.528;7.192;2023-04-24T02:45:43;7.95;;;4.03;;
18066;SDS011;9158;51.528;7.192;2023-04-24T02:46:15;6.70;;;4.20;;
18066;SDS011;9158;51.528;7.192;2023-04-24T02:46:46;9.35;;;4.00;;
18066;SDS011;9158;51.528;7.192;2023-04-24T02:47:17;4.95;;;4.07;;
18066;SDS011;9158;51.528;7.192;2023-04-24T02:47:50;5.57;;;4.38;;
18066;SDS011;9158;51.528;7.192;2023-04-24T02:48:21;4.97;;;4.40;;
18066;SDS011;9158;51.528;7.192;2023-04-24T02:48:52;6.80;;;4.90;;
18066;SDS011;9158;51.528;7.192;2023-04-24T02:49:24;4.63;;;4.18;;
18066;SDS011;9158;51.528;7.192;2023-04-24T02:49:55;4.93;;;4.28;;
18066;SDS011;9158;51.528;7.192;2023-04-24T02:50:26;4.90;;;3.90;;
18066;SDS011;9158;51.528;7.192;2023-04-24T02:50:58;7.57;;;4.60;;
18066;SDS011;9158;51.528;7.192;2023-04-24T02:51:29;10.10;;;3.80;;
18066;SDS011;9158;51.528;7.192;2023-04-24T02:52:00;4.80;;;4.32;;
18066;SDS011;9158;51.528;7.192;2023-04-24T02:52:32;4.90;;;4.40;;
18066;SDS011;9158;51.528;7.192;2023-04-24T02:53:03;6.45;;;4.22;;
18066;SDS011;9158;51.528;7.192;2023-04-24T02:53:34;5.82;;;4.40;;
18066;SDS011;9158;51.528;7.192;2023-04-24T02:54:08;6.03;;;4.95;;
18066;SDS011;9158;51.528;7.192;2023-04-24T02:54:39;5.28;;;4.32;;
18066;SDS011;9158;51.528;7.192;2023-04-24T02:55:10;4.53;;;4.13;;
18066;SDS011;9158;51.528;7.192;2023-04-24T02:55:41;4.88;;;4.35;;
18066;SDS011;9158;51.528;7.192;2023-04-24T02:56:13;6.45;;;4.78;;
18066;SDS011;9158;51.528;7.192;2023-04-24T02:56:44;6.72;;;4.88;;
18066;SDS011;9158;51.528;7.192;2023-04-24T02:57:15;7.38;;;5.43;;
18066;SDS011;9158;51.528;7.192;2023-04-24T02:57:47;5.22;;;4.63;;
18066;SDS011;9158;51.528;7.192;2023-04-24T02:58:19;6.47;;;4.70;;
18066;SDS011;9158;51.528;7.192;2023-04-24T02:58:50;6.57;;;4.22;;
18066;SDS011;9158;51.528;7.192;2023-04-24T02:59:21;7.55;;;4.97;;
18066;SDS011;9158;51.528;7.192;2023-04-24T02:59:53;7.75;;;5.45;;
18066;SDS011;9158;51.528;7.192;2023-04-24T03:00:24;7.22;;;4.95;;
18066;SDS011;9158;51.528;7.192;2023-04-24T03:00:55;8.32;;;5.57;;
18066;SDS011;9158;51.528;7.192;2023-04-24T03:01:27;8.35;;;5.85;;
18066;SDS011;9158;51.528;7.192;2023-04-24T03:01:58;6.90;;;4.40;;
18066;SDS011;9158;51.528;7.192;2023-04-24T03:02:29;7.90;;;5.47;;
18066;SDS011;9158;51.528;7.192;2023-04-24T03:03:01;11.27;;;5.30;;
18066;SDS011;9158;51.528;7.192;2023-04-24T03:03:33;8.82;;;5.55;;
18066;SDS011;9158;51.528;7.192;2023-04-24T03:04:03;5.87;;;4.70;;
18066;SDS011;9158;51.528;7.192;2023-04-24T03:04:35;6.82;;;5.70;;
18066;SDS011;9158;51.528;7.192;2023-04-24T03:05:07;6.40;;;4.55;;
18066;SDS011;9158;51.528;7.192;2023-04-24T03:05:39;5.95;;;5.10;;
18066;SDS011;9158;51.528;7.192;2023-04-24T03:06:10;7.78;;;5.57;;
18066;SDS011;9158;51.528;7.192;2023-04-24T03:06:42;7.28;;;5.07;;
18066;SDS011;9158;51.528;7.192;2023-04-24T03:07:13;7.43;;;5.75;;
18066;SDS011;9158;51.528;7.192;2023-04-24T03:07:44;8.35;;;5.28;;
18066;SDS011;9158;51.528;7.192;2023-04-24T03:08:16;7.22;;;5.38;;
18066;SDS011;9158;51.528;7.192;2023-04-24T03:08:47;8.23;;;5.80;;
18066;SDS011;9158;51.528;7.192;2023-04-24T03:09:20;5.43;;;4.80;;
18066;SDS011;9158;51.528;7.192;2023-04-24T03:09:52;6.97;;;5.78;;
18066;SDS011;9158;51.528;7.192;2023-04-24T03:10:23;6.30;;;4.80;;
18066;SDS011;9158;51.528;7.192;2023-04-24T03:10:54;6.75;;;5.20;;
18066;SDS011;9158;51.528;7.192;2023-04-24T03:11:26;5.90;;;5.30;;
18066;SDS011;9158;51.528;7.192;2023-04-24T03:11:57;5.97;;;5.15;;
18066;SDS011;9158;51.528;7.192;2023-04-24T03:12:29;10.10;;;5.57;;
18066;SDS011;9158;51.528;7.192;2023-04-24T03:13:00;7.32;;;5.53;;
18066;SDS011;9158;51.528;7.192;2023-04-24T03:13:31;8.35;;;5.60;;
18066;SDS011;9158;51.528;7.192;2023-04-24T03:14:02;7.50;;;5.13;;